Primera, Texas
Current Conditions -  °F | °C
As of 7:52 AM on Tuesday 21 Oct 2014 (Local Time) from KHRL Reporting Station
Haze Haze  
Wind Chill: 71°   Ceiling: Unl
Heat Index: 71°   Visibility: 6mi
Dew Point: 70°   Wind: 6mph
Humidity: 96%   Direction: 350°N
Pressure: 29.93"   Gusts: NA
Location:  26.2089°N, 97.6849°W
Report Text: KHRL 211252Z 35005KT 6SM BR SCT042 SCT055 22/21 A2993 RMK AO2 SLP133 T02170211
Loading
Personal Weather Stations






























Interactive Weather Map
Tropical Storm Tracking
New forecast layout! Learn more

10-Day Weather Forecast

Advertisements
Track Severe Weather on mobile